Airfield :
LOGIN :

Register | Disclaimer

   EN    FR    IT 

 










Legend :    VFR   Marginal VFR   IFR   Intensive IFR   Very Intensive IFR
Visi :
Ceiling :
>= 8 km
>= 3000ft
5 to 8 km
1000 to 3000 ft
1500m to 5 km
500 to 1000 ft
800 to 1500m
200 to 500 ft
< 800m
< 200 ft
Symbols :   Thunderstorms  Fog  Heavy snow  Heavy precipitations  Wind > 20 kt
SIGMETs :     Misc.  Thunderstorms  Icing  Turbulence  Mountain Waves  Volcanic Ashes







- Airport Elevation : 55 ft
- Download approach charts


EGNO - Warton Preston

CURRENT METAR :
  • 190820Z 26006KT 210V290 9999 FEW034 15/08 Q1021

EXPIRED METARs :
  • 190750Z 24005KT 210V270 9999 FEW034 15/08 Q1021
  • 190720Z 28006KT 250V310 9999 FEW036 14/07 Q1021
  • 190650Z 28006KT 260V320 CAVOK 14/07 Q1021
  • 190550Z 31005KT CAVOK 13/08 Q1020

TAF TAF EGNO
Valid from the 19 at 09:00 until the 19 at 18:00 UTC


190756Z 1909/1918 24006KT 9999 FEW035
PROB40
TEMPO 1917/1918 BKN014
ATIS : +44 1772 856 060
No reported NOTAMs for that airfield.
1 SIGMET reported for the London FIR (EGTT) :
 
Severe mountain waves
EGTT SIGMET 01 VALID 190605/191000 EGRR
EGTT LONDON FIR SEV MTW FCST WI N5500 E00200 - N5330 E00200 - N5330 W00300 - N5500 W00500 - N5500 E00200 FL040/240 STNR NC=



MET'MAP, your aeronautical weather chart ! - Copyright ORBIFLY December 2007 - Disclaimer

ORBIFLY MET'MAP TEAM :

Programming & Development : Alexandra Zaïnal
Concept & Development : Baudouin d'Aumeries
Co-Development & Prog : Marc-Olivier Méhu
Technical & hardware support : Manuel Goepfert

Contact : metmap@orbifly.com




SOURCES & CREDITS :

   NOAA